createdAt,value
2023-01-05T00:01:54.735Z,3.60
2023-01-05T00:04:22.356Z,6.82
2023-01-05T00:06:49.726Z,9.43
2023-01-05T00:09:18.690Z,5.18
2023-01-05T00:12:05.305Z,5.67
2023-01-05T00:14:51.574Z,4.85
2023-01-05T00:17:38.696Z,5.15
2023-01-05T00:20:25.113Z,8.52
2023-01-05T00:22:53.577Z,6.60
2023-01-05T00:25:21.698Z,5.03
2023-01-05T00:27:51.730Z,5.57
2023-01-05T00:30:20.346Z,5.32
2023-01-05T00:32:48.368Z,8.10
2023-01-05T00:35:16.696Z,3.90
2023-01-05T00:37:44.312Z,3.15
2023-01-05T00:40:12.661Z,3.97
2023-01-05T00:42:40.458Z,6.47
2023-01-05T00:45:10.608Z,3.10
2023-01-05T00:47:37.935Z,5.00
2023-01-05T00:50:06.228Z,3.42
2023-01-05T00:52:33.671Z,5.03
2023-01-05T00:55:01.371Z,6.82
2023-01-05T00:57:28.892Z,2.58
2023-01-05T00:59:56.235Z,3.58
2023-01-05T01:02:25.197Z,3.20
2023-01-05T01:04:52.617Z,3.65
2023-01-05T01:07:20.089Z,3.60
2023-01-05T01:09:47.437Z,3.90
2023-01-05T01:12:14.854Z,4.20
2023-01-05T01:14:42.274Z,4.50
2023-01-05T01:17:09.633Z,5.30
2023-01-05T01:19:39.190Z,6.88
2023-01-05T01:22:06.540Z,3.33
2023-01-05T01:24:33.960Z,7.95
2023-01-05T01:27:01.318Z,7.13
2023-01-05T01:29:29.604Z,6.10
2023-01-05T01:31:57.004Z,4.95
2023-01-05T01:34:24.585Z,4.63
2023-01-05T01:36:56.403Z,6.28
2023-01-05T01:39:23.967Z,6.57
2023-01-05T01:41:51.304Z,6.28
2023-01-05T01:44:33.545Z,4.95
2023-01-05T01:47:01.360Z,5.95
2023-01-05T01:49:28.800Z,6.10
2023-01-05T01:51:57.468Z,8.30
2023-01-05T01:54:24.918Z,4.28
2023-01-05T01:56:54.298Z,5.00
2023-01-05T01:59:21.906Z,6.05
2023-01-05T02:01:50.098Z,5.13
2023-01-05T02:04:17.659Z,6.20
2023-01-05T02:06:45.061Z,6.50
2023-01-05T02:09:13.832Z,4.32
2023-01-05T02:11:44.677Z,8.05
2023-01-05T02:14:16.558Z,7.32
2023-01-05T02:16:49.437Z,8.50
2023-01-05T02:19:42.871Z,4.97
2023-01-05T02:22:21.694Z,5.43
2023-01-05T02:25:05.935Z,8.07
2023-01-05T02:27:40.655Z,10.02
2023-01-05T02:30:26.080Z,8.35
2023-01-05T02:32:57.814Z,6.18
2023-01-05T02:35:30.674Z,7.82
2023-01-05T02:38:02.510Z,5.47
2023-01-05T02:40:33.093Z,7.93
2023-01-05T02:43:01.082Z,4.55
2023-01-05T02:45:28.659Z,5.90
2023-01-05T02:47:58.264Z,7.53
2023-01-05T02:50:29.736Z,11.88
2023-01-05T02:52:59.156Z,6.53
2023-01-05T02:55:29.375Z,7.07
2023-01-05T02:57:59.331Z,4.95
2023-01-05T03:00:28.262Z,7.70
2023-01-05T03:03:00.225Z,9.20
2023-01-05T03:05:30.676Z,6.60
2023-01-05T03:08:06.847Z,4.82
2023-01-05T03:10:55.063Z,6.47
2023-01-05T03:13:40.619Z,6.82
2023-01-05T03:16:08.802Z,6.45
2023-01-05T03:18:58.355Z,10.23
2023-01-05T03:21:26.807Z,6.55
2023-01-05T03:24:12.516Z,8.15
2023-01-05T03:26:58.306Z,9.13
2023-01-05T03:29:43.097Z,6.55
2023-01-05T03:32:35.091Z,10.18
2023-01-05T03:35:23.779Z,4.88
2023-01-05T03:37:53.840Z,9.52
2023-01-05T03:40:22.993Z,10.10
2023-01-05T03:42:50.423Z,8.32
2023-01-05T03:45:18.952Z,9.05
2023-01-05T03:47:46.469Z,10.30
2023-01-05T03:50:15.345Z,5.60
2023-01-05T03:52:42.703Z,5.65
2023-01-05T03:55:10.615Z,7.43
2023-01-05T03:57:38.255Z,5.07
2023-01-05T04:00:06.001Z,5.47
2023-01-05T04:02:33.531Z,7.10
2023-01-05T04:05:01.084Z,6.50
2023-01-05T04:07:30.019Z,7.38
2023-01-05T04:09:57.444Z,8.30
2023-01-05T04:12:24.792Z,8.23
2023-01-05T04:14:52.114Z,7.28
2023-01-05T04:17:19.462Z,7.75
2023-01-05T04:19:46.917Z,6.30
2023-01-05T04:22:14.266Z,8.93
2023-01-05T04:24:42.947Z,5.60
2023-01-05T04:27:10.277Z,8.32
2023-01-05T04:29:37.798Z,6.05
2023-01-05T04:32:05.406Z,7.72
2023-01-05T04:34:32.756Z,5.25
2023-01-05T04:37:00.267Z,7.13
2023-01-05T04:39:27.656Z,5.90
2023-01-05T04:41:56.413Z,5.78
2023-01-05T04:44:23.727Z,7.80
2023-01-05T04:46:51.115Z,5.78
2023-01-05T04:49:18.481Z,4.45
2023-01-05T04:51:45.866Z,4.95
2023-01-05T04:54:13.177Z,4.30
2023-01-05T04:56:40.570Z,4.65
2023-01-05T04:59:09.341Z,5.30
2023-01-05T05:01:36.783Z,5.43
2023-01-05T05:04:04.248Z,7.32
2023-01-05T05:06:31.582Z,5.18
2023-01-05T05:08:59.013Z,5.93
2023-01-05T05:11:26.477Z,5.50
2023-01-05T05:13:53.955Z,32.65
2023-01-05T05:16:22.667Z,9.05
2023-01-05T05:18:50.084Z,6.88
2023-01-05T05:21:17.778Z,3.67
2023-01-05T05:23:45.282Z,4.38
2023-01-05T05:26:12.803Z,5.45
2023-01-05T05:28:40.185Z,5.05
2023-01-05T05:31:08.691Z,3.78
2023-01-05T05:33:38.049Z,1.83
2023-01-05T05:36:05.957Z,3.42
2023-01-05T05:38:33.320Z,2.50
2023-01-05T05:41:01.728Z,4.53
2023-01-05T05:43:29.069Z,8.05
2023-01-05T05:45:56.684Z,9.27
2023-01-05T05:48:24.080Z,3.00
2023-01-05T05:50:53.197Z,3.85
2023-01-05T05:53:20.751Z,5.25
2023-01-05T05:55:49.135Z,4.95
2023-01-05T05:58:16.532Z,4.63
2023-01-05T06:00:43.937Z,5.50
2023-01-05T06:03:11.457Z,6.22
2023-01-05T06:05:38.968Z,6.03
2023-01-05T06:08:07.859Z,2.13
2023-01-05T06:10:35.424Z,7.35
2023-01-05T06:13:02.798Z,5.32
2023-01-05T06:15:30.161Z,6.60
2023-01-05T06:17:57.511Z,5.47
2023-01-05T06:20:24.856Z,3.97
2023-01-05T06:22:52.240Z,5.35
2023-01-05T06:25:20.933Z,5.63
2023-01-05T06:27:48.231Z,4.07
2023-01-05T06:30:15.621Z,4.88
2023-01-05T06:32:42.961Z,6.13
2023-01-05T06:35:10.516Z,2.88
2023-01-05T06:37:37.920Z,4.03
2023-01-05T06:40:05.715Z,4.53
2023-01-05T06:42:34.436Z,4.82
2023-01-05T06:45:01.784Z,3.58
2023-01-05T06:47:29.257Z,2.95
2023-01-05T06:49:56.687Z,5.75
2023-01-05T06:52:24.045Z,2.83
2023-01-05T06:54:51.375Z,2.65
2023-01-05T06:57:18.895Z,3.03
2023-01-05T06:59:47.622Z,8.68
2023-01-05T07:02:15.744Z,8.93
2023-01-05T07:04:43.368Z,4.57
2023-01-05T07:07:12.585Z,3.25
2023-01-05T07:09:40.339Z,4.32
2023-01-05T07:12:08.202Z,2.55
2023-01-05T07:14:35.596Z,4.88
2023-01-05T07:17:04.455Z,4.68
2023-01-05T07:19:32.938Z,6.63
2023-01-05T07:22:00.475Z,6.10
2023-01-05T07:24:27.827Z,3.30
2023-01-05T07:26:55.172Z,4.22
2023-01-05T07:29:22.571Z,2.78
2023-01-05T07:31:52.383Z,3.70
2023-01-05T07:34:21.498Z,2.65
2023-01-05T07:36:48.921Z,3.70
2023-01-05T07:39:16.471Z,2.92
2023-01-05T07:41:43.955Z,3.50
2023-01-05T07:44:11.459Z,5.85
2023-01-05T07:46:38.785Z,3.92
2023-01-05T07:49:06.715Z,3.63
2023-01-05T07:51:35.695Z,5.22
2023-01-05T07:54:03.523Z,2.50
2023-01-05T07:56:30.861Z,4.38
2023-01-05T07:58:58.205Z,5.85
2023-01-05T08:01:25.613Z,2.97
2023-01-05T08:03:53.434Z,7.90
2023-01-05T08:06:21.467Z,7.38
2023-01-05T08:08:50.201Z,2.35
2023-01-05T08:11:18.652Z,3.88
2023-01-05T08:14:02.662Z,2.30
2023-01-05T08:16:31.311Z,4.05
2023-01-05T08:18:59.352Z,3.00
2023-01-05T08:21:26.860Z,3.30
2023-01-05T08:23:55.519Z,2.80
2023-01-05T08:26:23.820Z,4.53
2023-01-05T08:28:51.469Z,3.30
2023-01-05T08:31:19.908Z,5.03
2023-01-05T08:33:47.323Z,2.67
2023-01-05T08:36:15.759Z,5.68
2023-01-05T08:38:48.020Z,3.15
2023-01-05T08:41:20.919Z,5.47
2023-01-05T08:43:50.605Z,6.25
2023-01-05T08:46:18.016Z,8.23
2023-01-05T08:48:48.965Z,6.43
2023-01-05T08:51:16.345Z,2.75
2023-01-05T08:53:43.867Z,6.28
2023-01-05T08:56:11.597Z,8.15
2023-01-05T08:58:41.201Z,6.90
2023-01-05T09:01:08.935Z,4.15
2023-01-05T09:03:36.437Z,4.00
2023-01-05T09:06:04.281Z,8.35
2023-01-05T09:08:32.193Z,2.60
2023-01-05T09:11:06.489Z,3.25
2023-01-05T09:13:34.005Z,4.03
2023-01-05T09:16:05.968Z,5.25
2023-01-05T09:18:33.343Z,5.50
2023-01-05T09:21:01.057Z,3.90
2023-01-05T09:23:28.456Z,5.93
2023-01-05T09:25:55.796Z,5.72
2023-01-05T09:28:23.323Z,5.18
2023-01-05T09:30:51.307Z,4.07
2023-01-05T09:33:20.431Z,4.68
2023-01-05T09:35:54.017Z,4.57
2023-01-05T09:38:21.447Z,3.53
2023-01-05T09:40:49.505Z,1.83
2023-01-05T09:43:22.084Z,2.03
2023-01-05T09:45:50.197Z,3.08
2023-01-05T09:48:18.877Z,4.53
2023-01-05T09:50:48.557Z,3.95
2023-01-05T09:53:16.873Z,3.88
2023-01-05T09:55:45.097Z,3.70
2023-01-05T09:58:15.071Z,2.58
2023-01-05T10:00:44.504Z,2.88
2023-01-05T10:03:36.562Z,3.70
2023-01-05T10:06:04.237Z,4.65
2023-01-05T10:08:33.928Z,3.28
2023-01-05T10:11:21.085Z,2.60
2023-01-05T10:13:55.627Z,3.63
2023-01-05T10:16:29.118Z,3.63
2023-01-05T10:18:57.328Z,2.03
2023-01-05T10:21:30.669Z,0.90
2023-01-05T10:24:03.630Z,3.33
2023-01-05T10:26:58.328Z,3.35
2023-01-05T10:29:23.125Z,2.75
2023-01-05T10:34:21.461Z,2.70
2023-01-05T10:37:10.059Z,3.70
2023-01-05T10:39:48.574Z,3.30
2023-01-05T10:42:24.449Z,4.18
2023-01-05T10:44:56.586Z,1.80
2023-01-05T10:47:25.864Z,3.72
2023-01-05T10:49:53.351Z,1.73
2023-01-05T10:52:23.227Z,12.35
2023-01-05T10:57:38.159Z,11.05
2023-01-05T11:00:08.067Z,5.68
2023-01-05T11:02:36.702Z,5.65
2023-01-05T11:05:05.802Z,3.25
2023-01-05T11:07:47.106Z,3.90
2023-01-05T11:10:29.028Z,3.60
2023-01-05T11:12:59.284Z,3.03
2023-01-05T11:15:26.794Z,5.97
2023-01-05T11:17:55.035Z,4.68
2023-01-05T11:20:22.742Z,3.90
2023-01-05T11:22:51.897Z,4.30
2023-01-05T11:25:29.416Z,6.45
2023-01-05T11:28:21.837Z,2.78
2023-01-05T11:30:59.292Z,3.30
2023-01-05T11:33:29.327Z,3.28
2023-01-05T11:35:57.107Z,1.60
2023-01-05T11:41:12.182Z,2.95
2023-01-05T11:43:40.163Z,3.42
2023-01-05T11:46:07.884Z,7.03
2023-01-05T11:48:36.224Z,3.80
2023-01-05T11:51:05.665Z,4.00
2023-01-05T11:53:39.715Z,6.38
2023-01-05T11:56:17.826Z,2.20
2023-01-05T11:58:46.257Z,7.22
2023-01-05T12:01:22.940Z,4.07
2023-01-05T12:04:01.209Z,4.32
2023-01-05T12:06:33.440Z,4.35
2023-01-05T12:09:05.785Z,5.65
2023-01-05T12:11:38.528Z,3.65
2023-01-05T12:14:10.733Z,4.00
2023-01-05T12:16:44.586Z,2.42
2023-01-05T12:19:30.862Z,1.88
2023-01-05T12:22:03.532Z,3.53
2023-01-05T12:24:36.354Z,4.32
2023-01-05T12:27:10.819Z,4.75
2023-01-05T12:35:43.252Z,2.60
2023-01-05T12:38:21.999Z,2.60
2023-01-05T12:40:54.882Z,1.70
2023-01-05T12:43:29.463Z,4.03
2023-01-05T12:46:11.062Z,5.28
2023-01-05T12:48:40.020Z,4.57
2023-01-05T12:51:10.962Z,3.17
2023-01-05T12:53:43.025Z,2.83
2023-01-05T12:56:15.792Z,3.55
2023-01-05T12:58:53.715Z,3.28
2023-01-05T13:01:25.412Z,3.53
2023-01-05T13:03:56.856Z,2.97
2023-01-05T13:06:25.097Z,5.50
2023-01-05T13:08:54.349Z,5.40
2023-01-05T13:11:25.833Z,9.60
2023-01-05T13:13:56.444Z,7.00
2023-01-05T13:16:24.804Z,3.70
2023-01-05T13:18:54.264Z,3.78
2023-01-05T13:21:22.668Z,3.25
2023-01-05T13:23:52.261Z,2.72
2023-01-05T13:26:22.010Z,5.63
2023-01-05T13:31:24.345Z,2.35
2023-01-05T13:34:00.581Z,4.28
2023-01-05T13:36:34.370Z,6.13
2023-01-05T13:39:20.271Z,4.03
2023-01-05T13:42:06.361Z,5.15
2023-01-05T13:44:52.705Z,5.68
2023-01-05T13:47:27.994Z,4.28
2023-01-05T13:50:14.415Z,4.40
2023-01-05T13:52:51.855Z,3.30
2023-01-05T13:55:25.829Z,5.32
2023-01-05T13:57:55.438Z,4.70
2023-01-05T14:00:25.600Z,2.50
2023-01-05T14:03:07.281Z,5.50
2023-01-05T14:05:36.851Z,6.45
2023-01-05T14:08:06.536Z,7.47
2023-01-05T14:13:03.498Z,6.07
2023-01-05T14:15:39.184Z,2.10
2023-01-05T14:18:08.161Z,3.50
2023-01-05T14:20:40.844Z,5.10
2023-01-05T14:23:29.527Z,3.63
2023-01-05T14:25:57.497Z,6.03
2023-01-05T14:28:55.380Z,2.58
2023-01-05T14:31:43.585Z,5.10
2023-01-05T14:34:16.369Z,3.00
2023-01-05T14:36:46.076Z,4.60
2023-01-05T14:39:24.215Z,6.15
2023-01-05T14:41:57.780Z,4.40
2023-01-05T14:44:27.982Z,3.90
2023-01-05T14:46:56.617Z,4.38
2023-01-05T14:49:28.332Z,5.45
2023-01-05T14:51:56.927Z,6.68
2023-01-05T14:54:38.736Z,2.33
2023-01-05T14:57:22.588Z,4.57
2023-01-05T14:59:50.944Z,4.72
2023-01-05T15:02:19.982Z,3.75
2023-01-05T15:04:49.899Z,3.58
2023-01-05T15:07:26.197Z,6.45
2023-01-05T15:10:07.786Z,5.22
2023-01-05T15:12:40.170Z,4.85
2023-01-05T15:15:19.728Z,3.63
2023-01-05T15:17:59.250Z,5.57
2023-01-05T15:20:45.759Z,3.33
2023-01-05T15:23:26.618Z,7.18
2023-01-05T15:26:08.257Z,6.53
2023-01-05T15:28:51.763Z,5.38
2023-01-05T15:31:35.062Z,5.00
2023-01-05T15:34:06.508Z,6.55
2023-01-05T15:36:38.629Z,5.35
2023-01-05T15:39:22.516Z,3.30
2023-01-05T15:41:50.311Z,2.90
2023-01-05T15:44:19.270Z,4.07
2023-01-05T15:46:47.383Z,2.87
2023-01-05T15:49:20.031Z,5.30
2023-01-05T15:51:50.844Z,2.75
2023-01-05T15:54:22.976Z,3.75
2023-01-05T15:56:50.411Z,4.53
2023-01-05T15:59:23.484Z,4.55
2023-01-05T16:01:50.829Z,3.30
2023-01-05T16:04:18.602Z,6.05
2023-01-05T16:06:47.215Z,4.35
2023-01-05T16:09:21.035Z,3.05
2023-01-05T16:11:50.655Z,5.85
2023-01-05T16:14:23.879Z,4.10
2023-01-05T16:16:55.218Z,5.65
2023-01-05T16:19:25.439Z,6.28
2023-01-05T16:21:55.761Z,6.97
2023-01-05T16:24:26.914Z,5.45
2023-01-05T16:26:55.717Z,5.65
2023-01-05T16:29:32.632Z,2.33
2023-01-05T16:32:00.027Z,2.28
2023-01-05T16:34:31.288Z,9.80
2023-01-05T16:37:03.356Z,5.78
2023-01-05T16:39:35.959Z,5.07
2023-01-05T16:42:23.307Z,7.63
2023-01-05T16:44:54.040Z,6.57
2023-01-05T16:47:31.627Z,8.40
2023-01-05T16:49:59.579Z,5.40
2023-01-05T16:52:30.927Z,7.35
2023-01-05T16:55:31.443Z,8.70
2023-01-05T16:58:00.547Z,5.75
2023-01-05T17:00:35.571Z,7.18
2023-01-05T17:03:05.935Z,5.85
2023-01-05T17:05:36.402Z,6.85
2023-01-05T17:08:06.795Z,5.88
2023-01-05T17:10:36.914Z,7.70
2023-01-05T17:13:11.658Z,6.00
2023-01-05T17:15:43.468Z,7.95
2023-01-05T17:18:15.291Z,6.65
2023-01-05T17:20:43.777Z,4.40
2023-01-05T17:23:13.341Z,5.50
2023-01-05T17:25:40.728Z,4.78
2023-01-05T17:28:09.512Z,4.80
2023-01-05T17:30:37.209Z,6.47
2023-01-05T17:33:06.513Z,6.32
2023-01-05T17:35:33.866Z,4.53
2023-01-05T17:38:01.187Z,7.00
2023-01-05T17:40:29.210Z,3.95
2023-01-05T17:42:56.634Z,2.28
2023-01-05T17:45:27.102Z,3.45
2023-01-05T17:47:54.644Z,5.63
2023-01-05T17:50:23.462Z,3.72
2023-01-05T17:52:50.912Z,4.75
2023-01-05T17:55:18.405Z,2.47
2023-01-05T17:57:45.926Z,3.33
2023-01-05T18:00:15.147Z,2.15
2023-01-05T18:02:44.056Z,2.70
2023-01-05T18:05:12.170Z,1.95
2023-01-05T18:07:40.527Z,4.03
2023-01-05T18:10:09.753Z,2.22
2023-01-05T18:12:37.304Z,2.13
2023-01-05T18:15:05.165Z,2.25
2023-01-05T18:20:07.012Z,2.75
2023-01-05T18:22:38.027Z,3.70
2023-01-05T18:27:35.606Z,2.22
2023-01-05T18:30:02.965Z,3.33
2023-01-05T18:35:09.897Z,3.45
2023-01-05T18:37:39.801Z,3.47
2023-01-05T18:40:07.701Z,5.80
2023-01-05T18:42:35.162Z,7.43
2023-01-05T18:45:13.723Z,8.18
2023-01-05T18:47:50.809Z,7.88
2023-01-05T18:50:18.483Z,6.20
2023-01-05T18:52:49.102Z,7.07
2023-01-05T18:55:16.455Z,10.10
2023-01-05T18:57:43.980Z,6.93
2023-01-05T19:00:11.931Z,7.93
2023-01-05T19:02:40.432Z,7.30
2023-01-05T19:05:08.938Z,5.88
2023-01-05T19:07:38.039Z,6.28
2023-01-05T19:10:07.144Z,5.60
2023-01-05T19:12:34.467Z,6.93
2023-01-05T19:15:01.804Z,7.18
2023-01-05T19:17:29.472Z,4.95
2023-01-05T19:19:57.586Z,6.07
2023-01-05T19:22:24.909Z,5.13
2023-01-05T19:24:52.243Z,5.65
2023-01-05T19:27:21.728Z,8.40
2023-01-05T19:29:49.053Z,8.95
2023-01-05T19:32:16.405Z,9.38
2023-01-05T19:34:43.804Z,12.13
2023-01-05T19:37:11.130Z,12.30
2023-01-05T19:39:38.627Z,11.07
2023-01-05T19:42:05.971Z,11.05
2023-01-05T19:44:37.702Z,14.35
2023-01-05T19:47:05.055Z,13.93
2023-01-05T19:49:32.501Z,13.90
2023-01-05T19:51:59.850Z,14.35
2023-01-05T19:54:29.374Z,14.80
2023-01-05T19:56:56.711Z,13.38
2023-01-05T19:59:26.366Z,14.38
2023-01-05T20:01:56.115Z,14.45
2023-01-05T20:04:26.301Z,12.98
2023-01-05T20:06:53.851Z,14.75
2023-01-05T20:09:22.088Z,15.18
2023-01-05T20:11:51.690Z,16.75
2023-01-05T20:14:21.590Z,23.95
2023-01-05T20:16:50.371Z,17.85
2023-01-05T20:19:19.742Z,20.42
2023-01-05T20:21:47.452Z,25.02
2023-01-05T20:24:15.897Z,28.60
2023-01-05T20:26:45.129Z,33.67
2023-01-05T20:29:12.786Z,43.65
2023-01-05T20:31:41.521Z,27.50
2023-01-05T20:34:09.764Z,18.95
2023-01-05T20:36:38.675Z,19.67
2023-01-05T20:39:07.322Z,15.27
2023-01-05T20:41:35.509Z,14.05
2023-01-05T20:44:02.882Z,12.20
2023-01-05T20:46:31.446Z,10.00
2023-01-05T20:48:58.886Z,8.32
2023-01-05T20:51:26.856Z,7.45
2023-01-05T20:53:56.429Z,9.40
2023-01-05T20:56:24.626Z,10.48
2023-01-05T20:58:54.698Z,12.05
2023-01-05T21:01:22.695Z,14.63
2023-01-05T21:03:52.773Z,17.30
2023-01-05T21:08:48.585Z,14.48
2023-01-05T21:11:17.687Z,10.85
2023-01-05T21:13:45.610Z,15.57
2023-01-05T21:16:16.634Z,12.65
2023-01-05T21:18:44.325Z,11.43
2023-01-05T21:21:12.856Z,12.90
2023-01-05T21:23:40.277Z,11.98
2023-01-05T21:26:13.634Z,12.63
2023-01-05T21:28:44.576Z,14.85
2023-01-05T21:31:12.976Z,14.90
2023-01-05T21:33:43.070Z,14.07
2023-01-05T21:36:15.018Z,16.70
2023-01-05T21:39:01.938Z,15.43
2023-01-05T21:41:47.229Z,14.63
2023-01-05T21:44:16.360Z,15.45
2023-01-05T21:46:44.010Z,11.98
2023-01-05T21:49:11.854Z,12.90
2023-01-05T21:51:56.895Z,12.25
2023-01-05T21:54:42.401Z,12.88
2023-01-05T21:57:09.704Z,11.55
2023-01-05T21:59:38.424Z,9.13
2023-01-05T22:02:06.054Z,11.98
2023-01-05T22:04:35.621Z,12.05
2023-01-05T22:07:05.107Z,15.65
2023-01-05T22:09:32.544Z,13.25
2023-01-05T22:12:02.645Z,10.80
2023-01-05T22:14:30.322Z,16.20
2023-01-05T22:16:59.063Z,15.57
2023-01-05T22:19:26.360Z,14.95
2023-01-05T22:21:53.673Z,15.80
2023-01-05T22:24:20.991Z,11.90
2023-01-05T22:26:48.338Z,16.38
2023-01-05T22:29:16.681Z,15.25
2023-01-05T22:31:44.340Z,15.88
2023-01-05T22:34:16.101Z,19.85
2023-01-05T22:36:43.499Z,15.32
2023-01-05T22:39:10.793Z,15.40
2023-01-05T22:41:38.099Z,17.17
2023-01-05T22:44:05.993Z,15.35
2023-01-05T22:46:33.575Z,15.43
2023-01-05T22:49:01.058Z,15.50
2023-01-05T22:51:30.369Z,16.23
2023-01-05T22:53:59.204Z,13.60
2023-01-05T22:56:27.646Z,18.65
2023-01-05T22:58:55.737Z,15.55
2023-01-05T23:01:25.142Z,13.32
2023-01-05T23:03:53.131Z,11.25
2023-01-05T23:06:21.052Z,14.10
2023-01-05T23:08:51.391Z,12.48
2023-01-05T23:11:20.271Z,13.00
2023-01-05T23:13:47.925Z,12.70
2023-01-05T23:16:16.805Z,9.90
2023-01-05T23:18:45.744Z,11.02
2023-01-05T23:21:13.873Z,6.28
2023-01-05T23:23:41.639Z,10.27
2023-01-05T23:26:13.155Z,13.05
2023-01-05T23:28:40.774Z,11.43
2023-01-05T23:31:09.224Z,8.13
2023-01-05T23:33:37.258Z,9.52
2023-01-05T23:36:05.283Z,7.80
2023-01-05T23:38:33.459Z,7.25
2023-01-05T23:41:01.639Z,8.95
2023-01-05T23:43:30.444Z,11.73
2023-01-05T23:46:02.111Z,11.55
2023-01-05T23:48:29.991Z,8.10
2023-01-05T23:50:57.786Z,9.45
2023-01-05T23:53:26.147Z,11.00
2023-01-05T23:55:53.702Z,6.30
2023-01-05T23:58:21.044Z,7.78
